Aérodrome :
LOGIN :

S'inscrire | Disclaimer

   EN    FR    IT 

 










Légende :    VFR   VFR Marginal   IFR   IFR Intensif   IFR Très Intensif
Visi : 
Plafond : 
>= 8 km
>= 3000ft
5 à 8 km
1000 à 3000 ft
1500m à 5 km
500 à 1000 ft
800 à 1500m
200 à 500 ft
< 800m
< 200 ft
Symboles :   Orages  Brouillard  Fortes neiges  Fortes précipitations  Vent > 20 kt
SIGMETs :   Divers  Orages  Givrage  Turbulence  Onde Orograph.  Cendres Volcan.






- Altitude de l'aérodrome : 390 ft
- Code IATA : NQY


EGHQ - Newquay

DERNIER METAR :
  • 290550Z AUTO 26007KT 9999 OVC046/// 15/11 Q1012

METARs EXPIRÉS :
  • 290520Z AUTO 27008KT 9999 NCD 15/11 Q1012
  • 290450Z AUTO 27009KT 9999 FEW026/// 15/11 Q1012
  • 290420Z AUTO 26009KT 9999 FEW028/// 15/11 Q1012
  • 290350Z AUTO 27011KT 9999 FEW027/// 15/11 Q1012
  • 290320Z AUTO 28012KT 9999 FEW027/// 15/11 Q1012

TAF TAF EGHQ
Valide du 29 à 06h jusqu'au 29 à 15h UTC


290458Z 2906/2915 25009KT 9999 SCT025
PROB30
TEMPO 2906/2911 7000 -SHRA
TEMPO 2911/2915 6000 RADZ BKN014
BECMG 2912/2915 18010KT
PROB30
TEMPO 2913/2915 4000 +RA BKN008



MET'MAP, la Météo Aéronautique d'un coup d'oeil ! - Copyright ORBIFLY Décembre 2007 - Disclaimer

ORBIFLY MET'MAP TEAM :

Programmation & Développement : Alexandra Zaïnal
Sur une idée originale de : Baudouin d'Aumeries
Assistance à la programmation : Marc-Olivier Méhu
Soutien technique & logistique : Manuel Goepfert

Contact : metmap@orbifly.com




SOURCES & CREDITS :

   NOAA